createdAt,value
2022-12-23T00:01:13.294Z,101328.47
2022-12-23T00:03:39.947Z,101335.44
2022-12-23T00:06:14.432Z,101337.16
2022-12-23T00:08:41.667Z,101323.84
2022-12-23T00:11:12.975Z,101320.41
2022-12-23T00:13:57.998Z,101348.25
2022-12-23T00:16:24.542Z,101349.47
2022-12-23T00:18:51.157Z,101337.25
2022-12-23T00:21:17.908Z,101329.41
2022-12-23T00:23:46.910Z,101335.13
2022-12-23T00:26:24.731Z,101335.56
2022-12-23T00:28:51.314Z,101350.19
2022-12-23T00:31:18.865Z,101361.16
2022-12-23T00:33:47.387Z,101376.41
2022-12-23T00:36:19.907Z,101372.75
2022-12-23T00:39:05.096Z,101386.06
2022-12-23T00:41:50.101Z,101391.19
2022-12-23T00:44:16.750Z,101377.66
2022-12-23T00:46:43.277Z,101349.13
2022-12-23T00:49:31.763Z,101343.03
2022-12-23T00:51:58.700Z,101332.28
2022-12-23T00:54:25.310Z,101332.16
2022-12-23T00:56:51.890Z,101310.56
2022-12-23T00:59:18.459Z,101304.97
2022-12-23T01:02:03.586Z,101310.31
2022-12-23T01:04:48.828Z,101294.56
2022-12-23T01:07:15.434Z,101278.81
2022-12-23T01:09:42.003Z,101276.13
2022-12-23T01:12:08.526Z,101287.84
2022-12-23T01:14:35.807Z,101310.28
2022-12-23T01:17:02.646Z,101314.81
2022-12-23T01:19:29.504Z,101315.66
2022-12-23T01:21:56.072Z,101304.91
2022-12-23T01:24:22.961Z,101297.84
2022-12-23T01:26:49.505Z,101316.50
2022-12-23T01:29:16.023Z,101333.47
2022-12-23T01:31:42.576Z,101329.75
2022-12-23T01:34:10.435Z,101320.22
2022-12-23T01:36:37.470Z,101322.06
2022-12-23T01:39:04.368Z,101329.03
2022-12-23T01:41:50.554Z,101332.44
2022-12-23T01:44:50.828Z,101319.03
2022-12-23T01:47:44.333Z,101302.78
2022-12-23T01:50:29.209Z,101300.00
2022-12-23T01:53:18.405Z,101300.00
2022-12-23T01:55:54.689Z,101303.69
2022-12-23T01:58:26.233Z,101292.19
2022-12-23T02:01:12.767Z,101292.31
2022-12-23T02:03:42.412Z,101298.31
2022-12-23T02:06:40.715Z,101300.00
2022-12-23T02:09:18.323Z,101317.84
2022-12-23T02:12:12.817Z,101323.94
2022-12-23T02:15:16.713Z,101314.91
2022-12-23T02:18:02.020Z,101312.22
2022-12-23T02:20:53.225Z,101305.75
2022-12-23T02:23:53.673Z,101293.22
2022-12-23T02:26:29.362Z,101294.91
2022-12-23T02:29:17.588Z,101284.19
2022-12-23T02:31:50.176Z,101287.84
2022-12-23T02:34:20.357Z,101296.75
2022-12-23T02:36:52.888Z,101300.66
2022-12-23T02:39:47.733Z,101294.44
2022-12-23T02:42:31.191Z,101296.13
2022-12-23T02:45:06.639Z,101310.53
2022-12-23T02:47:40.726Z,101316.84
2022-12-23T02:50:34.472Z,101324.06
2022-12-23T02:53:17.750Z,101305.47
2022-12-23T02:55:45.280Z,101306.56
2022-12-23T02:58:13.472Z,101321.19
2022-12-23T03:00:41.699Z,101319.59
2022-12-23T03:03:08.378Z,101326.88
2022-12-23T03:05:41.558Z,101321.63
2022-12-23T03:08:14.931Z,101313.06
2022-12-23T03:11:09.889Z,101314.28
2022-12-23T03:14:02.495Z,101313.53
2022-12-23T03:16:39.781Z,101302.69
2022-12-23T03:19:23.417Z,101299.88
2022-12-23T03:22:31.366Z,101294.31
2022-12-23T03:25:23.713Z,101292.38
2022-12-23T03:27:57.937Z,101302.84
2022-12-23T03:30:24.625Z,101308.22
2022-12-23T03:33:01.044Z,101301.38
2022-12-23T03:35:33.324Z,101292.38
2022-12-23T03:38:01.271Z,101275.41
2022-12-23T03:40:36.763Z,101282.59
2022-12-23T03:43:18.589Z,101286.34
2022-12-23T03:45:49.061Z,101277.56
2022-12-23T03:48:20.961Z,101278.19
2022-12-23T03:50:47.597Z,101286.25
2022-12-23T03:53:18.839Z,101277.13
2022-12-23T03:55:48.681Z,101272.38
2022-12-23T03:58:31.072Z,101277.75
2022-12-23T04:01:09.953Z,101278.69
2022-12-23T04:03:58.088Z,101281.38
2022-12-23T04:06:27.531Z,101297.94
2022-12-23T04:08:54.158Z,101305.88
2022-12-23T04:11:20.729Z,101299.66
2022-12-23T04:13:48.398Z,101301.38
2022-12-23T04:16:14.975Z,101296.75
2022-12-23T04:18:41.610Z,101288.69
2022-12-23T04:21:08.137Z,101284.31
2022-12-23T04:23:34.715Z,101280.03
2022-12-23T04:26:01.266Z,101272.94
2022-12-23T04:28:27.815Z,101271.34
2022-12-23T04:30:54.379Z,101270.38
2022-12-23T04:33:21.385Z,101272.00
2022-12-23T04:35:47.895Z,101267.38
2022-12-23T04:38:14.461Z,101272.59
2022-12-23T04:40:40.942Z,101286.91
2022-12-23T04:43:07.561Z,101283.97
2022-12-23T04:45:34.136Z,101279.13
2022-12-23T04:48:00.625Z,101278.16
2022-12-23T04:50:27.115Z,101261.94
2022-12-23T04:52:53.565Z,101255.47
2022-12-23T04:55:20.064Z,101274.16
2022-12-23T04:57:46.572Z,101266.97
2022-12-23T05:00:13.620Z,101267.81
2022-12-23T05:02:40.304Z,101267.81
2022-12-23T05:05:07.100Z,101258.16
2022-12-23T05:07:33.627Z,101268.06
2022-12-23T05:10:02.021Z,101277.06
2022-12-23T05:12:29.959Z,101272.03
2022-12-23T05:14:56.516Z,101277.75
2022-12-23T05:17:23.294Z,101264.78
2022-12-23T05:19:49.825Z,101267.94
2022-12-23T05:22:16.338Z,101257.44
2022-12-23T05:24:42.853Z,101255.94
2022-12-23T05:27:09.408Z,101272.50
2022-12-23T05:29:35.930Z,101289.63
2022-12-23T05:32:02.449Z,101276.69
2022-12-23T05:34:29.030Z,101267.19
2022-12-23T05:36:55.539Z,101262.88
2022-12-23T05:39:22.090Z,101252.38
2022-12-23T05:41:48.639Z,101265.03
2022-12-23T05:44:15.181Z,101264.41
2022-12-23T05:46:41.764Z,101279.69
2022-12-23T05:49:08.320Z,101293.09
2022-12-23T05:51:34.791Z,101288.63
2022-12-23T05:54:01.409Z,101302.13
2022-12-23T05:56:27.955Z,101306.31
2022-12-23T05:58:54.500Z,101308.25
2022-12-23T06:01:21.023Z,101298.50
2022-12-23T06:03:47.574Z,101290.78
2022-12-23T06:06:14.299Z,101311.38
2022-12-23T06:08:40.777Z,101316.72
2022-12-23T06:11:07.345Z,101318.22
2022-12-23T06:13:33.948Z,101317.88
2022-12-23T06:16:00.471Z,101309.22
2022-12-23T06:18:27.073Z,101311.34
2022-12-23T06:20:55.145Z,101313.50
2022-12-23T06:23:22.083Z,101319.78
2022-12-23T06:25:48.618Z,101331.69
2022-12-23T06:28:15.094Z,101348.72
2022-12-23T06:30:41.608Z,101334.34
2022-12-23T06:33:08.116Z,101350.13
2022-12-23T06:35:34.717Z,101356.34
2022-12-23T06:38:01.243Z,101344.78
2022-12-23T06:40:29.349Z,101330.41
2022-12-23T06:42:55.981Z,101318.84
2022-12-23T06:45:22.457Z,101315.19
2022-12-23T06:47:48.965Z,101323.97
2022-12-23T06:50:15.462Z,101336.94
2022-12-23T06:52:41.954Z,101342.75
2022-12-23T06:55:08.636Z,101338.78
2022-12-23T06:57:35.098Z,101332.34
2022-12-23T07:00:01.797Z,101332.25
2022-12-23T07:02:28.494Z,101344.69
2022-12-23T07:04:55.052Z,101356.59
2022-12-23T07:07:25.328Z,101350.59
2022-12-23T07:09:52.217Z,101337.28
2022-12-23T07:12:19.379Z,101341.88
2022-12-23T07:14:45.928Z,101333.00
2022-12-23T07:17:12.599Z,101319.72
2022-12-23T07:19:40.341Z,101337.50
2022-12-23T07:22:06.982Z,101334.59
2022-12-23T07:24:34.495Z,101323.69
2022-12-23T07:27:00.982Z,101308.38
2022-12-23T07:29:27.457Z,101317.13
2022-12-23T07:31:54.047Z,101332.16
2022-12-23T07:34:20.672Z,101339.88
2022-12-23T07:36:47.413Z,101329.81
2022-12-23T07:39:14.220Z,101329.38
2022-12-23T07:41:40.772Z,101326.38
2022-12-23T07:44:08.807Z,101319.09
2022-12-23T07:46:35.412Z,101322.72
2022-12-23T07:49:01.978Z,101349.66
2022-12-23T07:51:28.574Z,101357.13
2022-12-23T07:53:55.149Z,101373.44
2022-12-23T07:56:21.681Z,101373.53
2022-12-23T07:58:49.437Z,101377.16
2022-12-23T08:01:16.398Z,101381.66
2022-12-23T08:03:43.011Z,101390.13
2022-12-23T08:06:12.694Z,101374.59
2022-12-23T08:08:40.645Z,101376.97
2022-12-23T08:11:09.296Z,101383.72
2022-12-23T08:13:37.936Z,101379.75
2022-12-23T08:16:05.735Z,101394.66
2022-12-23T08:18:34.572Z,101397.00
2022-12-23T08:21:03.647Z,101404.84
2022-12-23T08:23:30.921Z,101399.28
2022-12-23T08:26:09.262Z,101394.66
2022-12-23T08:28:37.001Z,101400.78
2022-12-23T08:31:04.730Z,101401.53
2022-12-23T08:33:31.355Z,101404.88
2022-12-23T08:35:57.876Z,101413.66
2022-12-23T08:38:24.369Z,101417.09
2022-12-23T08:40:50.879Z,101420.63
2022-12-23T08:43:17.493Z,101416.09
2022-12-23T08:45:44.156Z,101421.38
2022-12-23T08:48:10.659Z,101424.06
2022-12-23T08:50:44.085Z,101424.91
2022-12-23T08:53:11.613Z,101428.22
2022-12-23T08:55:39.819Z,101425.13
2022-12-23T08:58:06.928Z,101438.09
2022-12-23T09:00:33.431Z,101442.50
2022-12-23T09:03:00.026Z,101423.50
2022-12-23T09:05:26.721Z,101413.28
2022-12-23T09:07:53.618Z,101408.22
2022-12-23T09:10:20.269Z,101399.53
2022-12-23T09:12:47.337Z,101385.22
2022-12-23T09:15:14.359Z,101384.53
2022-12-23T09:17:43.672Z,101386.88
2022-12-23T09:20:10.953Z,101398.88
2022-12-23T09:22:37.494Z,101406.34
2022-12-23T09:25:05.450Z,101399.56
2022-12-23T09:27:32.205Z,101402.53
2022-12-23T09:29:58.687Z,101408.03
2022-12-23T09:32:25.251Z,101417.38
2022-12-23T09:34:51.765Z,101403.69
2022-12-23T09:37:18.533Z,101406.06
2022-12-23T09:39:45.063Z,101410.00
2022-12-23T09:42:37.815Z,101409.66
2022-12-23T09:45:23.215Z,101415.75
2022-12-23T09:47:50.533Z,101399.75
2022-12-23T09:50:31.273Z,101389.00
2022-12-23T09:53:04.574Z,101386.69
2022-12-23T09:56:01.040Z,101397.22
2022-12-23T09:58:32.241Z,101416.63
2022-12-23T10:01:16.306Z,101401.25
2022-12-23T10:03:58.054Z,101408.84
2022-12-23T10:06:27.707Z,101416.56
2022-12-23T10:08:59.006Z,101420.84
2022-12-23T10:11:27.913Z,101424.16
2022-12-23T10:13:56.266Z,101433.56
2022-12-23T10:16:25.652Z,101436.97
2022-12-23T10:18:53.763Z,101443.00
2022-12-23T10:21:39.183Z,101422.09
2022-12-23T10:24:15.049Z,101424.31
2022-12-23T10:26:54.978Z,101426.63
2022-12-23T10:29:24.725Z,101433.34
2022-12-23T10:32:28.697Z,101425.53
2022-12-23T10:35:13.171Z,101427.59
2022-12-23T10:37:53.326Z,101426.00
2022-12-23T10:40:23.163Z,101419.91
2022-12-23T10:43:17.740Z,101423.44
2022-12-23T10:45:57.228Z,101412.69
2022-12-23T10:48:42.178Z,101396.72
2022-12-23T10:51:16.583Z,101386.34
2022-12-23T10:53:53.089Z,101374.19
2022-12-23T10:56:22.436Z,101361.72
2022-12-23T10:58:56.078Z,101376.03
2022-12-23T11:01:26.981Z,101369.06
2022-12-23T11:04:11.674Z,101373.78
2022-12-23T11:06:43.940Z,101368.38
2022-12-23T11:09:22.936Z,101359.38
2022-12-23T11:11:58.545Z,101357.88
2022-12-23T11:14:38.431Z,101364.13
2022-12-23T11:17:07.037Z,101363.25
2022-12-23T11:19:33.524Z,101368.81
2022-12-23T11:22:01.149Z,101383.97
2022-12-23T11:24:35.448Z,101370.50
2022-12-23T11:27:07.047Z,101361.16
2022-12-23T11:29:36.334Z,101352.69
2022-12-23T11:32:14.087Z,101355.13
2022-12-23T11:34:45.323Z,101364.41
2022-12-23T11:37:34.437Z,101365.72
2022-12-23T11:40:00.950Z,101359.94
2022-12-23T11:42:29.632Z,101331.31
2022-12-23T11:44:59.148Z,101333.03
2022-12-23T11:47:29.341Z,101330.47
2022-12-23T11:49:59.077Z,101323.34
2022-12-23T11:52:28.987Z,101317.28
2022-12-23T11:55:00.594Z,101323.50
2022-12-23T11:57:42.817Z,101325.19
2022-12-23T12:00:20.995Z,101320.66
2022-12-23T12:02:49.415Z,101324.78
2022-12-23T12:05:33.990Z,101323.69
2022-12-23T12:08:02.817Z,101330.91
2022-12-23T12:10:33.701Z,101328.22
2022-12-23T12:13:06.361Z,101320.72
2022-12-23T12:15:58.740Z,101306.97
2022-12-23T12:18:26.808Z,101297.88
2022-12-23T12:20:57.013Z,101298.00
2022-12-23T12:24:08.243Z,101291.78
2022-12-23T12:26:38.058Z,101289.38
2022-12-23T12:29:15.882Z,101288.47
2022-12-23T12:31:51.294Z,101283.69
2022-12-23T12:34:41.056Z,101288.81
2022-12-23T12:37:31.495Z,101284.16
2022-12-23T12:40:18.558Z,101285.88
2022-12-23T12:42:52.358Z,101285.97
2022-12-23T12:45:40.828Z,101296.19
2022-12-23T12:48:27.038Z,101291.34
2022-12-23T12:51:05.588Z,101281.66
2022-12-23T12:53:32.969Z,101283.50
2022-12-23T12:56:08.488Z,101275.16
2022-12-23T12:58:34.953Z,101264.09
2022-12-23T13:01:12.886Z,101262.13
2022-12-23T13:03:58.056Z,101256.59
2022-12-23T13:06:53.942Z,101257.19
2022-12-23T13:09:30.497Z,101261.59
2022-12-23T13:12:15.704Z,101261.59
2022-12-23T13:15:03.749Z,101258.44
2022-12-23T13:17:42.696Z,101256.28
2022-12-23T13:20:20.207Z,101268.88
2022-12-23T13:22:48.463Z,101250.59
2022-12-23T13:25:16.870Z,101232.19
2022-12-23T13:28:37.084Z,101233.16
2022-12-23T13:31:31.432Z,101255.47
2022-12-23T13:34:06.643Z,101255.34
2022-12-23T13:36:39.177Z,101257.31
2022-12-23T13:39:11.714Z,101258.28
2022-12-23T13:41:50.660Z,101250.06
2022-12-23T13:44:18.894Z,101245.81
2022-12-23T13:47:03.668Z,101246.94
2022-12-23T13:49:59.978Z,101242.25
2022-12-23T13:53:01.732Z,101230.34
2022-12-23T13:55:52.972Z,101237.13
2022-12-23T13:58:22.199Z,101236.69
2022-12-23T14:01:08.063Z,101237.94
2022-12-23T14:03:36.890Z,101244.47
2022-12-23T14:06:43.111Z,101249.72
2022-12-23T14:09:14.742Z,101255.81
2022-12-23T14:11:43.134Z,101265.63
2022-12-23T14:14:19.293Z,101271.75
2022-12-23T14:17:04.200Z,101266.34
2022-12-23T14:19:49.567Z,101271.75
2022-12-23T14:22:43.121Z,101273.72
2022-12-23T14:25:37.460Z,101275.41
2022-12-23T14:28:10.073Z,101282.66
2022-12-23T14:30:40.377Z,101268.34
2022-12-23T14:33:18.753Z,101260.50
2022-12-23T14:35:45.255Z,101242.03
2022-12-23T14:38:14.372Z,101247.72
2022-12-23T14:40:44.169Z,101248.69
2022-12-23T14:43:23.329Z,101256.66
2022-12-23T14:45:55.216Z,101263.72
2022-12-23T14:48:34.253Z,101264.31
2022-12-23T14:51:22.545Z,101248.75
2022-12-23T14:53:58.143Z,101256.66
2022-12-23T14:56:40.287Z,101270.03
2022-12-23T14:59:31.991Z,101263.50
2022-12-23T15:01:59.999Z,101260.81
2022-12-23T15:04:28.583Z,101258.09
2022-12-23T15:06:59.374Z,101258.25
2022-12-23T15:09:28.747Z,101253.13
2022-12-23T15:11:56.713Z,101259.25
2022-12-23T15:14:30.856Z,101257.25
2022-12-23T15:16:57.548Z,101267.06
2022-12-23T15:19:26.296Z,101266.06
2022-12-23T15:22:18.004Z,101263.25
2022-12-23T15:24:49.137Z,101249.88
2022-12-23T15:27:29.453Z,101255.28
2022-12-23T15:29:57.618Z,101255.41
2022-12-23T15:32:25.320Z,101250.00
2022-12-23T15:34:53.285Z,101259.13
2022-12-23T15:37:27.995Z,101262.06
2022-12-23T15:40:04.465Z,101250.72
2022-12-23T15:42:38.447Z,101241.06
2022-12-23T15:45:24.305Z,101241.19
2022-12-23T15:47:50.916Z,101235.19
2022-12-23T15:50:18.621Z,101240.72
2022-12-23T15:52:47.683Z,101243.69
2022-12-23T15:55:21.189Z,101241.25
2022-12-23T15:57:50.574Z,101240.41
2022-12-23T16:00:24.107Z,101234.44
2022-12-23T16:03:01.531Z,101249.03
2022-12-23T16:05:35.769Z,101251.00
2022-12-23T16:08:30.455Z,101259.25
2022-12-23T16:11:06.682Z,101255.84
2022-12-23T16:13:33.956Z,101263.03
2022-12-23T16:16:19.217Z,101251.28
2022-12-23T16:18:47.870Z,101267.34
2022-12-23T16:21:15.337Z,101255.84
2022-12-23T16:23:49.309Z,101248.59
2022-12-23T16:26:15.897Z,101239.38
2022-12-23T16:28:46.713Z,101233.88
2022-12-23T16:31:17.554Z,101239.13
2022-12-23T16:34:04.978Z,101244.66
2022-12-23T16:36:33.211Z,101238.66
2022-12-23T16:39:08.923Z,101257.09
2022-12-23T16:41:35.905Z,101252.94
2022-12-23T16:44:02.707Z,101254.91
2022-12-23T16:46:34.160Z,101263.84
2022-12-23T16:49:04.766Z,101261.28
2022-12-23T16:51:34.105Z,101253.19
2022-12-23T16:54:01.226Z,101249.53
2022-12-23T16:56:30.043Z,101248.66
2022-12-23T16:58:56.682Z,101253.59
2022-12-23T17:01:27.414Z,101251.31
2022-12-23T17:03:55.793Z,101249.56
2022-12-23T17:06:22.747Z,101240.53
2022-12-23T17:08:49.710Z,101246.16
2022-12-23T17:11:22.901Z,101264.28
2022-12-23T17:13:49.931Z,101269.84
2022-12-23T17:16:21.921Z,101269.84
2022-12-23T17:18:49.183Z,101264.56
2022-12-23T17:21:32.131Z,101254.75
2022-12-23T17:24:07.658Z,101254.91
2022-12-23T17:26:34.277Z,101254.19
2022-12-23T17:29:02.744Z,101270.19
2022-12-23T17:31:29.393Z,101275.34
2022-12-23T17:33:55.911Z,101275.06
2022-12-23T17:36:22.493Z,101266.88
2022-12-23T17:38:49.192Z,101275.78
2022-12-23T17:41:30.939Z,101274.81
2022-12-23T17:43:58.100Z,101266.75
2022-12-23T17:46:25.571Z,101276.66
2022-12-23T17:48:52.522Z,101283.75
2022-12-23T17:51:21.950Z,101288.28
2022-12-23T17:53:55.194Z,101292.97
2022-12-23T17:56:24.969Z,101296.63
2022-12-23T17:58:51.856Z,101297.75
2022-12-23T18:01:30.241Z,101301.69
2022-12-23T18:03:58.334Z,101293.16
2022-12-23T18:06:26.260Z,101277.50
2022-12-23T18:08:52.925Z,101274.22
2022-12-23T18:11:20.872Z,101279.59
2022-12-23T18:13:48.416Z,101296.75
2022-12-23T18:16:15.004Z,101304.09
2022-12-23T18:18:46.345Z,101305.06
2022-12-23T18:21:14.298Z,101301.66
2022-12-23T18:23:40.926Z,101291.88
2022-12-23T18:26:07.616Z,101291.00
2022-12-23T18:28:34.164Z,101303.72
2022-12-23T18:31:00.773Z,101301.19
2022-12-23T18:33:30.273Z,101292.50
2022-12-23T18:35:57.098Z,101306.34
2022-12-23T18:38:23.746Z,101317.47
2022-12-23T18:40:53.881Z,101324.44
2022-12-23T18:43:23.441Z,101342.38
2022-12-23T18:45:53.193Z,101349.19
2022-12-23T18:48:21.917Z,101351.28
2022-12-23T18:50:48.596Z,101348.59
2022-12-23T18:53:24.550Z,101323.69
2022-12-23T18:55:52.349Z,101299.56
2022-12-23T18:58:19.073Z,101271.69
2022-12-23T19:00:46.439Z,101259.22
2022-12-23T19:03:31.646Z,101291.63
2022-12-23T19:06:06.356Z,101294.44
2022-12-23T19:08:34.878Z,101279.75
2022-12-23T19:11:01.971Z,101275.25
2022-12-23T19:13:28.457Z,101278.06
2022-12-23T19:15:55.124Z,101256.66
2022-12-23T19:18:22.046Z,101246.00
2022-12-23T19:20:49.411Z,101229.88
2022-12-23T19:23:16.667Z,101245.03
2022-12-23T19:25:49.242Z,101260.19
2022-12-23T19:28:21.793Z,101252.84
2022-12-23T19:30:48.744Z,101243.09
2022-12-23T19:33:15.478Z,101243.09
2022-12-23T19:35:42.494Z,101252.84
2022-12-23T19:38:09.134Z,101259.09
2022-12-23T19:40:35.820Z,101263.38
2022-12-23T19:43:02.917Z,101265.91
2022-12-23T19:45:29.558Z,101274.13
2022-12-23T19:47:56.268Z,101274.72
2022-12-23T19:50:23.026Z,101288.06
2022-12-23T19:52:52.143Z,101299.09
2022-12-23T19:55:18.670Z,101314.88
2022-12-23T19:57:45.237Z,101321.81
2022-12-23T20:00:12.574Z,101315.88
2022-12-23T20:02:39.172Z,101313.91
2022-12-23T20:05:06.060Z,101315.47
2022-12-23T20:07:32.723Z,101329.41
2022-12-23T20:09:59.450Z,101327.44
2022-12-23T20:12:29.970Z,101312.91
2022-12-23T20:14:56.490Z,101309.84
2022-12-23T20:17:23.097Z,101314.22
2022-12-23T20:19:49.646Z,101323.53
2022-12-23T20:22:16.235Z,101346.03
2022-12-23T20:24:42.729Z,101355.97
2022-12-23T20:27:11.725Z,101348.59
2022-12-23T20:29:39.143Z,101319.59
2022-12-23T20:32:06.370Z,101322.06
2022-12-23T20:34:38.773Z,101324.59
2022-12-23T20:37:06.500Z,101330.97
2022-12-23T20:39:33.288Z,101352.63
2022-12-23T20:41:59.855Z,101368.53
2022-12-23T20:44:35.525Z,101358.63
2022-12-23T20:47:07.702Z,101342.47
2022-12-23T20:49:34.395Z,101317.41
2022-12-23T20:52:01.144Z,101316.41
2022-12-23T20:54:32.748Z,101315.44
2022-12-23T20:57:00.744Z,101324.09
2022-12-23T20:59:27.289Z,101323.25
2022-12-23T21:01:53.894Z,101317.41
2022-12-23T21:04:20.599Z,101321.34
2022-12-23T21:06:47.871Z,101315.22
2022-12-23T21:09:15.618Z,101314.59
2022-12-23T21:11:44.187Z,101310.34
2022-12-23T21:14:11.801Z,101295.88
2022-12-23T21:16:39.017Z,101295.66
2022-12-23T21:19:08.059Z,101306.16
2022-12-23T21:21:35.100Z,101308.00
2022-12-23T21:24:04.592Z,101310.56
2022-12-23T21:26:32.559Z,101315.22
2022-12-23T21:29:00.272Z,101319.13
2022-12-23T21:31:28.615Z,101327.44
2022-12-23T21:33:55.877Z,101336.41
2022-12-23T21:36:24.819Z,101340.91
2022-12-23T21:38:51.959Z,101348.13
2022-12-23T21:41:21.505Z,101348.25
2022-12-23T21:43:48.705Z,101349.47
2022-12-23T21:46:17.263Z,101348.72
2022-12-23T21:48:44.464Z,101349.00
2022-12-23T21:51:21.514Z,101359.75
2022-12-23T21:53:50.741Z,101355.34
2022-12-23T21:56:22.607Z,101339.19
2022-12-23T21:58:49.062Z,101329.44
2022-12-23T22:01:18.551Z,101327.69
2022-12-23T22:03:46.835Z,101323.94
2022-12-23T22:06:18.867Z,101337.97
2022-12-23T22:08:45.893Z,101332.09
2022-12-23T22:11:15.681Z,101333.31
2022-12-23T22:13:42.494Z,101339.16
2022-12-23T22:16:10.921Z,101351.28
2022-12-23T22:18:37.923Z,101354.44
2022-12-23T22:21:10.089Z,101339.16
2022-12-23T22:23:37.924Z,101335.38
2022-12-23T22:26:05.725Z,101329.13
2022-12-23T22:28:33.999Z,101339.91
2022-12-23T22:31:04.835Z,101335.47
2022-12-23T22:33:32.687Z,101337.22
2022-12-23T22:35:59.646Z,101324.72
2022-12-23T22:38:26.752Z,101321.28
2022-12-23T22:40:53.597Z,101320.34
2022-12-23T22:43:20.443Z,101329.16
2022-12-23T22:45:47.131Z,101320.47
2022-12-23T22:48:13.832Z,101304.34
2022-12-23T22:50:40.352Z,101304.22
2022-12-23T22:53:06.876Z,101317.69
2022-12-23T22:55:33.367Z,101317.69
2022-12-23T22:58:01.036Z,101331.13
2022-12-23T23:00:27.562Z,101342.84
2022-12-23T23:02:54.118Z,101332.34
2022-12-23T23:05:20.877Z,101338.69
2022-12-23T23:07:47.545Z,101342.50
2022-12-23T23:10:14.967Z,101336.50
2022-12-23T23:12:41.761Z,101334.81
2022-12-23T23:15:08.822Z,101333.06
2022-12-23T23:17:35.396Z,101323.19
2022-12-23T23:20:02.219Z,101321.97
2022-12-23T23:22:28.841Z,101324.41
2022-12-23T23:24:55.318Z,101328.66
2022-12-23T23:27:21.924Z,101317.69
2022-12-23T23:29:48.564Z,101325.50
2022-12-23T23:32:15.226Z,101327.78
2022-12-23T23:34:42.258Z,101316.91
2022-12-23T23:37:08.889Z,101327.56
2022-12-23T23:39:35.353Z,101314.97
2022-12-23T23:42:01.914Z,101303.06
2022-12-23T23:44:28.529Z,101306.50
2022-12-23T23:46:55.101Z,101296.34
2022-12-23T23:49:22.749Z,101309.81
2022-12-23T23:51:50.120Z,101309.81
2022-12-23T23:54:16.986Z,101316.91
2022-12-23T23:56:43.556Z,101306.88
2022-12-23T23:59:10.078Z,101292.44
